Luthersburg, Pennsylvania
Current Conditions -  °F | °C
As of 4:53 AM on Sunday 23 Nov 2014 (Local Time) from KDUJ Reporting Station
Overcast Overcast  
Wind Chill: 40°   Ceiling: 3700
Heat Index: 45°   Visibility: 10mi
Dew Point: 31°   Wind: 10mph
Humidity: 58%   Direction: 240°WSW
Pressure: 30.07"   Gusts: NA
Location:  41.05°N, 78.72°W
Report Text: KDUJ 230953Z AUTO 24009KT 10SM OVC037 07/M01 A3007 RMK AO2 SLP194 T00721006
Loading
Personal Weather Stations






























Interactive Weather Map New forecast layout! Learn more

10-Day Weather Forecast

Advertisements
Track Severe Weather on mobile